Time;durP1;ratioP1;P1;durP2;ratioP2;P2;SDS_P1;SDS_P2;PMS_P1;PMS_P2;Temp;Humidity;BMP_temperature;BMP_pressure;BME280_temperature;BME280_humidity;BME280_pressure;Samples;Min_cycle;Max_cycle;Signal;HPM_P1;HPM_P2
2022/03/13 00:00:27;;;;;;;16.20;10.48;;;3.80;99.90;;;3.04;100.00;97462.88;4981887;28;20137;-69
2022/03/13 00:02:55;;;;;;;18.30;9.70;;;3.70;99.90;;;2.85;100.00;97464.88;4984773;28;20172;-70
2022/03/13 00:05:22;;;;;;;17.90;10.50;;;3.60;99.90;;;2.97;100.00;97461.28;4984345;28;20038;-69
2022/03/13 00:07:51;;;;;;;22.40;11.38;;;3.60;99.90;;;3.05;100.00;97466.28;4983593;28;20073;-69
2022/03/13 00:10:25;;;;;;;19.77;11.98;;;3.70;99.90;;;2.95;100.00;97465.56;4982682;28;20144;-70
2022/03/13 00:12:52;;;;;;;18.27;11.35;;;3.60;99.90;;;2.95;100.00;97460.44;4986403;28;20483;-70
2022/03/13 00:15:34;;;;;;;22.40;11.20;;;3.60;99.90;;;3.02;100.00;97459.50;4983111;28;20114;-70
2022/03/13 00:18:02;;;;;;;19.73;11.15;;;3.60;99.90;;;3.02;100.00;97466.34;4982072;28;20383;-70
2022/03/13 00:20:30;;;;;;;21.63;10.57;;;3.70;99.90;;;3.09;100.00;97465.38;4982219;28;20106;-70
2022/03/13 00:22:58;;;;;;;21.88;11.45;;;3.70;99.90;;;3.00;100.00;97456.09;4981182;28;20201;-69
2022/03/13 00:25:26;;;;;;;19.75;11.55;;;3.70;99.90;;;2.82;100.00;97462.31;4983153;28;20142;-70
2022/03/13 00:27:53;;;;;;;20.27;11.15;;;3.60;99.90;;;2.71;100.00;97456.50;4983238;28;20121;-70
2022/03/13 00:30:20;;;;;;;19.42;12.13;;;3.50;99.90;;;2.83;100.00;97453.78;4967801;28;20488;-70
2022/03/13 00:32:48;;;;;;;19.33;11.85;;;3.50;99.90;;;2.95;100.00;97451.91;4984781;28;20127;-70
2022/03/13 00:35:15;;;;;;;21.20;12.18;;;3.50;99.90;;;3.00;100.00;97450.97;4983313;28;20082;-71
2022/03/13 00:37:42;;;;;;;26.23;13.02;;;3.60;99.90;;;3.06;100.00;97452.63;4982059;28;20138;-70
2022/03/13 00:40:13;;;;;;;18.65;11.15;;;3.60;99.90;;;3.11;100.00;97443.13;4982820;28;20064;-70
2022/03/13 00:42:39;;;;;;;20.42;12.07;;;3.70;99.90;;;3.16;100.00;97456.72;4980639;28;20572;-70
2022/03/13 00:45:07;;;;;;;18.80;10.50;;;3.70;99.90;;;2.81;100.00;97452.13;4981623;28;20047;-70
2022/03/13 00:47:34;;;;;;;22.33;11.32;;;3.60;99.90;;;2.75;100.00;97450.47;4983822;28;20185;-69
2022/03/13 00:50:02;;;;;;;17.10;11.02;;;3.50;99.90;;;2.63;100.00;97458.31;4983010;28;20082;-70
2022/03/13 00:52:29;;;;;;;19.55;11.65;;;3.40;99.90;;;2.64;100.00;97455.72;4987946;28;20096;-70
2022/03/13 00:54:55;;;;;;;21.23;11.98;;;3.30;99.90;;;2.65;100.00;97456.59;4987422;28;20046;-70
2022/03/13 00:57:22;;;;;;;16.35;10.82;;;3.30;99.90;;;2.14;100.00;97457.19;4984758;28;20069;-70
2022/03/13 00:59:49;;;;;;;17.52;10.65;;;3.10;99.90;;;2.34;100.00;97458.69;4988461;28;20058;-70
2022/03/13 01:02:16;;;;;;;18.17;10.27;;;3.00;99.90;;;2.43;100.00;97467.09;4987087;28;20153;-70
2022/03/13 01:04:43;;;;;;;16.27;9.88;;;3.00;99.90;;;2.46;100.00;97466.22;4984950;28;20054;-69
2022/03/13 01:07:14;;;;;;;20.92;10.70;;;3.00;99.90;;;2.43;100.00;97461.97;4982952;28;20047;-70
2022/03/13 01:09:42;;;;;;;15.27;10.32;;;3.00;99.90;;;2.35;100.00;97463.78;4987074;28;20055;-70
2022/03/13 01:12:10;;;;;;;19.02;11.20;;;2.90;99.90;;;2.06;100.00;97457.28;4986962;28;20054;-70
2022/03/13 01:14:37;;;;;;;19.33;11.48;;;2.90;99.90;;;2.08;100.00;97454.72;4990041;28;20069;-70
2022/03/13 01:17:08;;;;;;;19.90;12.90;;;2.70;99.90;;;1.97;100.00;97449.69;4973045;28;20217;-69
2022/03/13 01:19:37;;;;;;;20.52;13.00;;;2.60;99.90;;;1.82;100.00;97453.25;4985892;28;20192;-69
2022/03/13 01:22:12;;;;;;;22.10;13.20;;;2.50;99.90;;;1.89;100.00;97454.03;4973290;28;20089;-70
2022/03/13 01:24:44;;;;;;;22.05;12.95;;;2.50;99.90;;;1.74;100.00;97449.09;4983727;28;20082;-70
2022/03/13 01:27:13;;;;;;;19.38;12.35;;;2.50;99.90;;;1.96;100.00;97455.69;4986118;28;20047;-70
2022/03/13 01:29:41;;;;;;;21.00;13.02;;;2.60;99.90;;;1.40;100.00;97447.66;4984202;28;20141;-70
2022/03/13 01:32:11;;;;;;;19.38;12.60;;;2.60;99.90;;;1.39;100.00;97440.00;4988334;28;20051;-69
2022/03/13 01:34:42;;;;;;;25.67;13.23;;;2.50;99.90;;;1.55;100.00;97441.59;4986776;28;20141;-70
2022/03/13 01:37:18;;;;;;;18.25;12.35;;;2.50;99.90;;;1.53;100.00;97434.75;4989210;28;20137;-70
2022/03/13 01:39:48;;;;;;;20.70;12.27;;;2.40;99.90;;;1.58;100.00;97436.44;4983953;28;20057;-70
2022/03/13 01:42:15;;;;;;;19.63;10.90;;;2.50;99.90;;;1.73;100.00;97437.97;4985621;28;20065;-70
2022/03/13 01:44:42;;;;;;;20.17;11.70;;;2.40;99.90;;;1.79;100.00;97437.09;4986484;28;20112;-70
2022/03/13 01:47:09;;;;;;;17.58;10.90;;;2.40;99.90;;;1.80;100.00;97437.09;4987161;28;20070;-70
2022/03/13 01:49:36;;;;;;;20.10;11.93;;;2.40;99.90;;;1.86;100.00;97433.59;4987840;28;20047;-70
2022/03/13 01:52:04;;;;;;;25.52;12.93;;;2.50;99.90;;;1.78;100.00;97428.56;4968331;28;20202;-70
2022/03/13 01:54:31;;;;;;;20.17;12.32;;;2.40;99.90;;;1.64;100.00;97428.72;4987053;28;20054;-70
2022/03/13 01:57:00;;;;;;;22.98;13.15;;;2.30;99.90;;;1.71;100.00;97423.50;4983405;28;20109;-70
2022/03/13 01:59:29;;;;;;;23.63;12.23;;;2.20;99.90;;;1.56;100.00;97427.91;4982538;28;20059;-69
2022/03/13 02:01:57;;;;;;;20.80;12.50;;;2.20;99.90;;;1.46;100.00;97424.59;4982269;28;20477;-70
2022/03/13 02:04:28;;;;;;;22.90;12.93;;;2.20;99.90;;;1.56;100.00;97427.91;4982321;28;20078;-70
2022/03/13 02:06:56;;;;;;;21.48;12.55;;;2.20;99.90;;;1.33;100.00;97420.44;4978764;28;20081;-70
2022/03/13 02:09:23;;;;;;;20.60;12.40;;;2.10;99.90;;;1.08;100.00;97430.03;4978810;28;20696;-70
2022/03/13 02:11:51;;;;;;;18.95;11.35;;;2.00;99.90;;;1.37;100.00;97431.50;4988367;28;20054;-70
2022/03/13 02:14:24;;;;;;;20.88;11.88;;;2.00;99.90;;;1.33;100.00;97430.69;4983028;28;20137;-70
2022/03/13 02:16:52;;;;;;;20.33;11.85;;;2.00;99.90;;;1.42;100.00;97428.03;4985919;28;20124;-70
2022/03/13 02:19:20;;;;;;;21.92;13.05;;;2.00;99.90;;;1.28;100.00;97429.00;4985096;28;20057;-70
2022/03/13 02:21:53;;;;;;;22.45;13.02;;;2.00;99.90;;;1.22;100.00;97422.25;4983865;28;20531;-70
2022/03/13 02:24:24;;;;;;;20.35;13.13;;;2.00;99.90;;;1.14;100.00;97424.88;4987890;28;20077;-70
2022/03/13 02:27:05;;;;;;;27.42;15.68;;;1.90;99.90;;;1.16;100.00;97418.00;4968698;28;20043;-69
2022/03/13 02:29:32;;;;;;;22.83;14.45;;;1.90;99.90;;;1.18;100.00;97410.34;4983500;28;20489;-69
2022/03/13 02:32:00;;;;;;;29.70;14.15;;;1.90;99.90;;;1.21;100.00;97407.78;4980045;28;20146;-70
2022/03/13 02:34:28;;;;;;;22.20;14.32;;;1.90;99.90;;;0.94;100.00;97408.84;4979116;28;20082;-70
2022/03/13 02:37:01;;;;;;;23.50;15.18;;;1.90;99.90;;;0.79;100.00;97404.66;4983115;28;20077;-70
2022/03/13 02:39:34;;;;;;;20.63;12.73;;;1.70;99.90;;;0.91;100.00;97399.47;4983991;28;20141;-69
2022/03/13 02:42:03;;;;;;;21.27;13.40;;;1.70;99.90;;;0.89;100.00;97400.34;4983378;28;20150;-69
2022/03/13 02:44:30;;;;;;;24.02;14.90;;;1.60;99.90;;;0.50;100.00;97399.72;4984843;28;20093;-69
2022/03/13 02:47:01;;;;;;;22.70;13.70;;;1.40;99.90;;;0.60;100.00;97398.84;4981817;28;20085;-69
2022/03/13 02:49:31;;;;;;;23.33;13.98;;;1.40;99.90;;;0.68;100.00;97397.06;4983129;28;20051;-70
2022/03/13 02:52:03;;;;;;;25.02;15.05;;;1.40;99.90;;;0.92;100.00;97385.84;4981910;28;20142;-70
2022/03/13 02:54:31;;;;;;;23.27;15.18;;;1.60;99.90;;;1.02;100.00;97391.72;4983417;28;20093;-70
2022/03/13 02:56:59;;;;;;;23.58;12.90;;;1.70;99.90;;;1.04;100.00;97382.34;4960807;28;20129;-69
2022/03/13 02:59:26;;;;;;;20.77;11.93;;;1.90;99.90;;;1.12;100.00;97377.16;4985186;28;20133;-69
2022/03/13 03:01:53;;;;;;;20.63;13.15;;;1.90;99.90;;;0.37;100.00;97384.47;4983864;28;20133;-70
2022/03/13 03:04:23;;;;;;;18.70;12.65;;;1.90;99.90;;;0.56;100.00;97387.78;4987536;28;20070;-70
2022/03/13 03:06:59;;;;;;;28.67;14.30;;;1.70;99.90;;;0.97;100.00;97391.75;4974813;28;20461;-70
2022/03/13 03:09:29;;;;;;;20.50;13.38;;;1.70;99.90;;;1.04;100.00;97384.91;4979601;28;20496;-70
2022/03/13 03:12:04;;;;;;;23.90;14.65;;;1.70;99.90;;;1.04;100.00;97384.91;4982788;28;20130;-70
2022/03/13 03:14:34;;;;;;;22.50;13.77;;;1.80;99.90;;;1.08;100.00;97384.00;4985875;28;20097;-69
2022/03/13 03:17:02;;;;;;;22.23;13.85;;;1.80;99.90;;;0.95;100.00;97388.34;4982396;28;20055;-69
2022/03/13 03:19:30;;;;;;;22.30;13.63;;;1.80;99.90;;;1.16;100.00;97386.50;4981139;28;20070;-70
2022/03/13 03:21:58;;;;;;;26.63;14.18;;;1.80;99.90;;;1.29;100.00;97382.97;4980222;28;20097;-70
2022/03/13 03:24:26;;;;;;;26.50;14.88;;;1.90;99.90;;;1.14;100.00;97388.22;4984994;28;20046;-70
2022/03/13 03:26:54;;;;;;;23.33;14.43;;;1.80;99.90;;;1.17;100.00;97391.59;4980919;28;20074;-70
2022/03/13 03:29:27;;;;;;;26.67;14.85;;;1.80;99.90;;;1.12;100.00;97387.38;4984763;28;20050;-69
2022/03/13 03:31:55;;;;;;;31.80;16.05;;;1.90;99.90;;;1.07;100.00;97391.69;4982264;28;20137;-69
2022/03/13 03:34:26;;;;;;;24.13;14.90;;;1.90;99.90;;;0.96;100.00;97394.34;4981640;28;20125;-70
2022/03/13 03:37:02;;;;;;;23.17;14.40;;;1.90;99.90;;;1.00;100.00;97391.75;4985630;28;20061;-69
2022/03/13 03:39:31;;;;;;;24.67;14.30;;;1.80;99.90;;;0.93;100.00;97402.00;4982959;28;20145;-70
2022/03/13 03:42:00;;;;;;;28.27;16.27;;;1.70;99.90;;;0.78;100.00;97400.44;4983511;28;20556;-70
2022/03/13 03:44:27;;;;;;;25.98;15.60;;;1.70;99.90;;;0.77;100.00;97399.56;4982159;28;20069;-70
2022/03/13 03:46:55;;;;;;;26.60;15.25;;;1.60;99.90;;;0.57;100.00;97402.25;4982245;28;20085;-70
2022/03/13 03:49:23;;;;;;;27.50;16.27;;;1.50;99.90;;;0.59;100.00;97413.31;4980960;28;20050;-69
2022/03/13 03:51:50;;;;;;;27.05;15.43;;;1.40;99.90;;;0.54;100.00;97406.53;4979413;28;20178;-70
2022/03/13 03:54:17;;;;;;;28.10;17.08;;;1.30;99.90;;;0.65;100.00;97401.34;4981778;28;20603;-69
2022/03/13 03:56:44;;;;;;;26.55;16.83;;;1.30;99.90;;;0.50;100.00;97397.19;4982969;28;20466;-70
2022/03/13 03:59:11;;;;;;;26.25;16.95;;;1.40;99.90;;;0.32;100.00;97398.13;4983857;28;20102;-70
2022/03/13 04:01:41;;;;;;;25.17;16.58;;;1.30;99.90;;;0.41;100.00;97398.06;4984268;28;20142;-70
2022/03/13 04:04:16;;;;;;;29.90;15.90;;;1.20;99.90;;;0.58;100.00;97395.44;4985808;28;20097;-72
2022/03/13 04:06:44;;;;;;;25.48;15.25;;;1.30;99.90;;;0.54;100.00;97389.47;4989668;28;20121;-69
2022/03/13 04:09:12;;;;;;;25.08;13.90;;;1.30;99.90;;;0.49;100.00;97391.22;4984635;28;20464;-70
2022/03/13 04:11:40;;;;;;;30.60;16.17;;;1.30;99.90;;;0.57;100.00;97388.63;4985450;28;20050;-70
2022/03/13 04:14:11;;;;;;;22.83;13.65;;;1.30;99.90;;;0.61;100.00;97396.25;4986042;28;20495;-71
2022/03/13 04:16:38;;;;;;;22.25;13.95;;;1.30;99.90;;;0.73;100.00;97390.25;4968564;28;20105;-71
2022/03/13 04:19:05;;;;;;;22.58;13.82;;;1.30;99.90;;;0.71;100.00;97396.19;4979873;28;20096;-70
2022/03/13 04:21:32;;;;;;;22.23;14.45;;;1.40;99.90;;;0.61;100.00;97396.25;4978979;28;21658;-71
2022/03/13 04:23:59;;;;;;;24.73;13.80;;;1.40;99.90;;;0.58;100.00;97398.84;4981019;28;20126;-70
2022/03/13 04:26:26;;;;;;;21.63;13.57;;;1.30;99.90;;;0.65;100.00;97404.75;4984954;28;20082;-70
2022/03/13 04:28:53;;;;;;;21.60;13.52;;;1.30;99.90;;;0.51;100.00;97406.56;4982885;28;20089;-70
2022/03/13 04:31:20;;;;;;;27.20;15.15;;;1.30;99.90;;;0.50;100.00;97402.28;4986486;28;20664;-70
2022/03/13 04:33:48;;;;;;;25.65;15.30;;;1.20;99.90;;;0.48;100.00;97415.06;4986361;28;20053;-69
2022/03/13 04:36:21;;;;;;;25.23;15.50;;;1.20;99.90;;;0.41;100.00;97413.38;4984743;28;20093;-70
2022/03/13 04:38:49;;;;;;;29.48;14.73;;;1.20;99.90;;;0.44;100.00;97412.56;4971412;28;20085;-70
2022/03/13 04:41:20;;;;;;;26.98;15.68;;;1.20;99.90;;;0.54;100.00;97417.56;4983169;28;20046;-69
2022/03/13 04:43:47;;;;;;;23.77;13.93;;;1.20;99.90;;;0.56;100.00;97415.88;4984603;28;20097;-70
2022/03/13 04:46:15;;;;;;;23.65;14.13;;;1.30;99.90;;;0.58;100.00;97406.50;4986823;28;20539;-70
2022/03/13 04:48:42;;;;;;;19.73;13.13;;;1.30;99.90;;;0.80;100.00;97412.34;4983677;28;20120;-70
2022/03/13 04:51:09;;;;;;;20.60;12.50;;;1.40;99.90;;;0.86;100.00;97413.97;4981157;28;20134;-69
2022/03/13 04:53:36;;;;;;;23.60;14.68;;;1.50;99.90;;;0.81;100.00;97415.72;4983538;28;20142;-70
2022/03/13 04:56:04;;;;;;;24.23;15.15;;;1.50;99.90;;;0.80;100.00;97414.03;4982543;28;20475;-70
2022/03/13 04:58:32;;;;;;;25.50;14.38;;;1.40;99.90;;;0.64;100.00;97405.63;4985540;28;20173;-70
2022/03/13 05:00:59;;;;;;;22.50;14.25;;;1.40;99.90;;;0.60;100.00;97398.84;4981916;28;20047;-70
2022/03/13 05:03:27;;;;;;;24.58;14.52;;;1.40;99.90;;;0.40;100.00;97409.16;4984608;28;20077;-70
2022/03/13 05:05:54;;;;;;;21.58;13.82;;;1.30;99.90;;;-0.21;100.00;97425.53;4979691;28;20047;-70
2022/03/13 05:08:22;;;;;;;22.88;14.70;;;1.30;99.90;;;0.17;100.00;97430.53;4982415;28;20125;-70
2022/03/13 05:10:50;;;;;;;35.47;20.30;;;1.30;99.90;;;0.64;100.00;97423.50;4981049;28;20556;-70
2022/03/13 05:13:17;;;;;;;41.00;20.13;;;1.40;99.90;;;0.96;100.00;97425.00;4981603;28;20137;-70
2022/03/13 05:15:46;;;;;;;66.10;26.55;;;1.50;99.90;;;0.99;100.00;97428.38;4981991;28;20189;-69
2022/03/13 05:18:14;;;;;;;49.40;22.20;;;1.70;99.90;;;1.20;100.00;97424.81;4963712;28;20702;-70
2022/03/13 05:20:42;;;;;;;34.65;17.88;;;1.80;99.90;;;1.11;100.00;97424.88;4968363;28;20081;-70
2022/03/13 05:23:09;;;;;;;34.38;18.13;;;1.90;99.90;;;1.16;100.00;97424.84;4982012;28;20109;-70
2022/03/13 05:25:38;;;;;;;34.35;17.95;;;1.90;99.90;;;1.13;100.00;97428.28;4981880;28;20133;-70
2022/03/13 05:28:08;;;;;;;36.85;17.25;;;1.90;99.90;;;1.34;100.00;97431.53;4981452;28;20074;-70
2022/03/13 05:30:39;;;;;;;39.53;18.95;;;2.10;99.90;;;1.36;100.00;97425.53;4967799;28;20081;-70
2022/03/13 05:33:08;;;;;;;33.67;17.92;;;2.20;99.90;;;1.41;100.00;97431.44;4982357;28;20077;-70
2022/03/13 05:35:35;;;;;;;56.40;29.55;;;2.30;99.90;;;0.96;100.00;97432.69;4984272;28;20089;-70
2022/03/13 05:38:02;;;;;;;44.25;24.20;;;2.40;99.90;;;0.86;100.00;97446.34;4985776;28;20051;-70
2022/03/13 05:40:30;;;;;;;36.50;18.50;;;2.30;99.90;;;0.67;100.00;97459.25;4983321;28;20588;-70
2022/03/13 05:42:58;;;;;;;29.17;16.50;;;2.30;99.90;;;1.08;100.00;97444.53;4983195;28;20066;-70
2022/03/13 05:45:28;;;;;;;25.35;15.48;;;2.20;99.90;;;1.37;100.00;97449.38;4987532;28;20057;-70
2022/03/13 05:48:06;;;;;;;29.13;17.27;;;2.30;99.90;;;1.58;100.00;97450.94;4986397;28;20046;-69
2022/03/13 05:50:33;;;;;;;37.78;19.33;;;2.40;99.90;;;1.76;100.00;97447.38;4982146;28;20465;-70
2022/03/13 05:53:00;;;;;;;33.38;18.45;;;2.40;99.90;;;1.78;100.00;97458.41;4984003;28;20147;-70
2022/03/13 05:55:27;;;;;;;30.35;17.17;;;2.50;99.90;;;1.70;100.00;97452.53;4983864;28;20116;-70
2022/03/13 05:57:56;;;;;;;25.33;15.73;;;2.70;99.90;;;1.87;100.00;97446.38;4987925;28;20053;-70
2022/03/13 06:00:25;;;;;;;30.75;15.35;;;2.70;99.90;;;2.05;100.00;97452.16;4990019;28;20144;-70
2022/03/13 06:02:53;;;;;;;27.73;15.10;;;2.80;99.90;;;2.24;100.00;97453.66;4987892;28;20141;-69
2022/03/13 06:05:21;;;;;;;27.45;16.23;;;2.80;99.90;;;2.14;100.00;97451.22;4997854;28;20058;-69
2022/03/13 06:07:49;;;;;;;30.42;17.23;;;2.90;99.90;;;2.13;100.00;97450.38;4997657;28;20050;-70
2022/03/13 06:10:22;;;;;;;31.33;16.65;;;2.90;99.90;;;2.13;100.00;97450.38;4997464;28;20054;-71
2022/03/13 06:12:49;;;;;;;27.67;17.27;;;3.00;99.90;;;1.99;100.00;97447.13;4992802;28;20073;-70
2022/03/13 06:15:19;;;;;;;29.02;15.65;;;3.00;99.90;;;2.44;100.00;97453.44;4994354;28;20083;-69
2022/03/13 06:17:48;;;;;;;25.67;14.60;;;3.00;99.90;;;2.42;100.00;97442.34;4988454;28;21164;-70
2022/03/13 06:20:17;;;;;;;30.98;16.48;;;3.10;99.90;;;2.49;100.00;97436.28;4986401;28;20149;-70
2022/03/13 06:22:46;;;;;;;37.78;19.15;;;3.20;99.90;;;2.38;100.00;97447.53;4988702;28;20071;-70
2022/03/13 06:25:15;;;;;;;29.90;16.85;;;3.20;99.90;;;2.12;100.00;97451.22;4981080;28;20077;-70
2022/03/13 06:27:43;;;;;;;35.10;18.50;;;3.40;99.90;;;2.12;100.00;97438.41;4988351;28;20053;-72
2022/03/13 06:30:16;;;;;;;39.97;20.17;;;3.40;99.90;;;1.86;100.00;97434.44;4985628;28;20504;-70
2022/03/13 06:32:51;;;;;;;33.90;19.88;;;3.40;99.90;;;2.00;100.00;97436.84;4958217;28;20154;-70
2022/03/13 06:35:21;;;;;;;45.50;22.45;;;3.40;99.90;;;1.70;100.00;97434.63;4983448;28;20105;-70
2022/03/13 06:37:49;;;;;;;34.47;19.83;;;3.40;99.90;;;1.78;100.00;97427.69;4972789;28;20073;-69
2022/03/13 06:40:19;;;;;;;30.48;17.70;;;3.30;99.90;;;1.90;100.00;97427.59;4984703;28;20454;-70
2022/03/13 06:42:48;;;;;;;30.30;17.05;;;3.20;99.90;;;2.28;100.00;97423.72;4985135;28;20050;-70
2022/03/13 06:45:15;;;;;;;26.23;15.48;;;3.30;99.90;;;2.09;100.00;97423.09;4985826;28;20078;-69
2022/03/13 06:47:46;;;;;;;25.40;14.15;;;3.40;99.90;;;2.32;100.00;97437.34;4990384;28;20056;-70
2022/03/13 06:50:15;;;;;;;23.70;13.60;;;3.40;99.90;;;2.33;100.00;97433.91;4986174;28;20046;-70
2022/03/13 06:52:44;;;;;;;21.55;13.77;;;3.50;99.90;;;2.77;100.00;97427.38;4959704;28;20077;-69
2022/03/13 06:55:14;;;;;;;21.10;13.93;;;3.60;99.90;;;3.10;100.00;97424.34;4969735;28;20043;-69
2022/03/13 06:57:43;;;;;;;21.90;14.18;;;3.70;99.90;;;3.03;100.00;97425.28;4988080;28;20100;-70
2022/03/13 07:00:12;;;;;;;23.75;14.80;;;3.70;99.90;;;3.18;100.00;97441.31;4969878;28;20061;-71
2022/03/13 07:02:46;;;;;;;23.73;14.70;;;3.80;99.90;;;3.43;100.00;97449.47;4987636;28;20123;-70
2022/03/13 07:05:15;;;;;;;26.17;16.27;;;4.00;99.90;;;3.40;100.00;97447.81;4983960;28;20053;-69
2022/03/13 07:07:43;;;;;;;26.45;16.38;;;4.10;99.90;;;3.42;100.00;97440.06;4970876;28;20062;-69
2022/03/13 07:10:12;;;;;;;30.73;16.83;;;4.10;99.90;;;3.36;100.00;97435.91;4989503;28;20080;-68
2022/03/13 07:12:44;;;;;;;31.80;16.95;;;4.20;99.90;;;3.52;100.00;97437.34;4987954;28;20054;-69
2022/03/13 07:15:13;;;;;;;24.03;14.63;;;4.30;99.90;;;3.75;100.00;97436.94;4983454;28;20050;-69
2022/03/13 07:17:43;;;;;;;28.70;16.15;;;4.40;99.90;;;3.72;100.00;97441.28;4982893;28;20068;-69
2022/03/13 07:20:11;;;;;;;24.20;15.20;;;4.50;99.90;;;3.87;100.00;97443.56;4980718;28;20046;-69
2022/03/13 07:22:40;;;;;;;27.02;16.42;;;4.50;99.90;;;3.71;100.00;97435.28;4986912;28;20084;-71
2022/03/13 07:25:07;;;;;;;32.40;17.48;;;4.50;99.90;;;3.65;100.00;97432.84;4983140;28;20176;-71
2022/03/13 07:27:36;;;;;;;33.03;17.48;;;4.50;99.90;;;3.70;100.00;97440.47;4983914;28;20133;-70
2022/03/13 07:30:08;;;;;;;23.98;14.65;;;4.60;99.90;;;3.97;100.00;97434.84;4967534;28;20519;-71
2022/03/13 07:32:36;;;;;;;25.67;16.08;;;4.60;99.90;;;4.03;100.00;97440.72;4973178;28;20086;-71
2022/03/13 07:35:03;;;;;;;23.92;14.23;;;4.70;99.90;;;4.17;100.00;97444.75;4986085;28;20100;-68
2022/03/13 07:37:30;;;;;;;25.35;15.90;;;4.80;99.90;;;4.02;100.00;97442.44;4988764;28;20049;-71
2022/03/13 07:39:58;;;;;;;24.77;14.77;;;4.80;99.90;;;4.17;100.00;97439.59;4984794;28;20456;-70
2022/03/13 07:42:25;;;;;;;22.42;14.13;;;4.90;99.90;;;4.22;100.00;97433.50;4985295;28;20136;-71
2022/03/13 07:44:52;;;;;;;22.80;13.80;;;5.00;99.90;;;4.45;100.00;97433.91;4981983;28;20520;-71
2022/03/13 07:47:19;;;;;;;32.00;15.98;;;5.10;99.90;;;4.22;100.00;97434.38;4984353;28;20141;-70
2022/03/13 07:49:46;;;;;;;28.13;17.05;;;5.00;99.90;;;4.21;100.00;97431.81;4969731;28;20085;-70
2022/03/13 07:52:13;;;;;;;26.35;16.52;;;5.10;99.90;;;4.33;100.00;97431.56;4983150;28;20047;-70
2022/03/13 07:54:40;;;;;;;24.30;14.88;;;5.10;99.90;;;4.38;100.00;97428.03;4988571;28;20090;-69
2022/03/13 07:57:08;;;;;;;26.88;16.13;;;5.30;99.90;;;4.52;100.00;97432.91;4980779;28;20042;-71
2022/03/13 07:59:35;;;;;;;23.20;15.35;;;5.40;99.90;;;4.91;100.00;97427.78;4981942;28;20524;-70
2022/03/13 08:02:02;;;;;;;25.65;14.85;;;5.70;99.90;;;5.31;100.00;97429.41;4983118;28;20130;-70
2022/03/13 08:04:30;;;;;;;21.85;12.85;;;6.10;99.90;;;6.02;100.00;97419.91;4978285;28;20177;-69
2022/03/13 08:06:57;;;;;;;22.25;13.60;;;6.60;99.90;;;6.49;100.00;97423.75;4971233;28;20070;-70
2022/03/13 08:09:24;;;;;;;17.40;11.60;;;7.00;99.90;;;7.07;100.00;97415.16;4967309;28;20138;-70
2022/03/13 08:11:53;;;;;;;25.15;11.88;;;7.30;99.90;;;7.20;100.00;97408.72;4981094;28;20129;-70
2022/03/13 08:14:20;;;;;;;23.13;11.63;;;7.50;99.90;;;7.40;100.00;97415.00;4983317;28;20054;-70
2022/03/13 08:16:47;;;;;;;18.73;12.40;;;7.60;99.90;;;7.30;100.00;97422.22;4964117;28;20491;-70
2022/03/13 08:19:14;;;;;;;18.30;12.18;;;7.60;99.90;;;7.30;100.00;97423.03;4984188;28;20129;-70
2022/03/13 08:21:41;;;;;;;20.50;12.77;;;7.60;99.90;;;7.18;100.00;97423.41;4984634;28;20578;-70
2022/03/13 08:24:08;;;;;;;19.70;12.40;;;7.60;99.90;;;7.17;100.00;97426.06;4984298;28;20078;-70
2022/03/13 08:26:40;;;;;;;17.75;12.15;;;7.60;99.90;;;7.18;100.00;97417.41;4978876;28;20047;-71
2022/03/13 08:29:08;;;;;;;20.27;12.23;;;7.60;99.90;;;7.25;100.00;97424.06;4971015;28;20058;-71
2022/03/13 08:31:36;;;;;;;18.60;12.93;;;7.70;99.90;;;7.46;100.00;97420.81;4982965;28;20057;-70
2022/03/13 08:34:08;;;;;;;18.38;12.07;;;7.70;99.90;;;7.75;100.00;97424.16;4962878;28;20047;-71
2022/03/13 08:36:40;;;;;;;17.38;11.77;;;8.10;99.90;;;8.61;100.00;97417.72;4983991;28;20533;-70
2022/03/13 08:39:07;;;;;;;17.95;11.20;;;8.30;99.90;;;8.66;100.00;97414.06;4981395;28;20096;-70
2022/03/13 08:41:35;;;;;;;16.98;11.18;;;8.60;99.90;;;8.86;100.00;97415.06;4987630;28;20436;-70
2022/03/13 08:44:02;;;;;;;20.73;10.90;;;8.70;99.90;;;9.37;100.00;97419.06;4976788;28;20104;-70
2022/03/13 08:46:30;;;;;;;15.20;10.13;;;9.10;99.90;;;9.19;100.00;97420.66;4981179;28;20571;-71
2022/03/13 08:48:57;;;;;;;17.95;11.30;;;9.20;99.90;;;8.45;100.00;97420.03;4976636;28;20130;-70
2022/03/13 08:51:27;;;;;;;19.02;11.88;;;9.20;99.40;;;8.86;100.00;97415.06;4981975;28;20137;-69
2022/03/13 08:53:56;;;;;;;19.17;11.73;;;9.00;99.50;;;8.49;100.00;97417.28;4984244;28;20498;-70
2022/03/13 08:56:23;;;;;;;16.35;11.77;;;9.00;99.10;;;8.27;100.00;97424.94;4970013;28;20420;-69
2022/03/13 08:58:50;;;;;;;18.80;11.85;;;9.00;98.50;;;8.43;100.00;97417.50;4978685;28;20512;-69
2022/03/13 09:01:18;;;;;;;17.30;11.85;;;8.90;98.80;;;8.02;100.00;97422.38;4981775;28;20121;-70
2022/03/13 09:03:45;;;;;;;17.63;12.00;;;8.80;99.00;;;8.53;100.00;97418.84;4980716;28;20051;-70
2022/03/13 09:06:12;;;;;;;16.67;11.30;;;8.80;98.40;;;9.19;100.00;97415.47;4976037;28;20137;-70
2022/03/13 09:08:39;;;;;;;19.10;12.13;;;9.10;98.80;;;9.19;100.00;97424.09;4980343;28;20101;-70
2022/03/13 09:11:07;;;;;;;19.50;12.00;;;9.30;97.40;;;9.60;100.00;97420.72;4983384;28;20051;-69
2022/03/13 09:13:36;;;;;;;17.85;12.15;;;9.50;97.30;;;10.13;100.00;97420.22;4985603;28;20521;-70
2022/03/13 09:16:04;;;;;;;16.42;11.52;;;9.90;95.70;;;11.03;100.00;97417.94;4988992;28;20086;-70
2022/03/13 09:18:31;;;;;;;17.90;11.95;;;10.60;95.90;;;10.78;100.00;97417.38;4987203;28;20050;-70
2022/03/13 09:20:59;;;;;;;18.27;10.75;;;10.80;94.10;;;11.98;100.00;97409.03;4987640;28;20148;-70
2022/03/13 09:23:27;;;;;;;14.93;10.70;;;11.40;94.20;;;12.34;100.00;97406.31;4985975;28;20146;-70
2022/03/13 09:25:55;;;;;;;16.75;11.25;;;11.80;92.70;;;13.36;100.00;97409.47;4987869;28;20296;-69
2022/03/13 09:28:23;;;;;;;17.90;11.63;;;12.20;91.70;;;13.25;100.00;97403.97;4981693;28;20051;-70
2022/03/13 09:30:50;;;;;;;16.20;11.82;;;12.60;91.00;;;13.84;100.00;97412.78;4984213;28;20047;-69
2022/03/13 09:33:18;;;;;;;16.60;11.73;;;13.00;90.30;;;13.27;100.00;97407.34;4983762;28;20054;-70
2022/03/13 09:35:45;;;;;;;21.08;12.95;;;13.20;87.90;;;13.07;98.06;97401.50;4984292;28;20899;-70
2022/03/13 09:38:13;;;;;;;19.65;11.52;;;13.20;85.20;;;14.09;100.00;97406.13;4984111;28;20046;-70
2022/03/13 09:40:40;;;;;;;18.27;12.23;;;13.50;86.80;;;13.81;94.38;97407.75;4985164;28;20057;-70
2022/03/13 09:43:07;;;;;;;18.48;12.30;;;13.60;82.80;;;13.60;96.59;97397.63;4975286;28;20042;-70
2022/03/13 09:45:35;;;;;;;19.33;13.00;;;13.50;83.50;;;12.74;97.95;97402.41;4985449;28;20137;-70
2022/03/13 09:48:08;;;;;;;21.70;13.95;;;13.00;82.60;;;13.00;99.18;97404.50;4985881;28;20068;-70
2022/03/13 09:50:35;;;;;;;19.25;13.05;;;12.90;84.30;;;13.36;99.76;97399.03;4974955;28;20125;-70
2022/03/13 09:53:03;;;;;;;16.48;12.45;;;12.80;85.40;;;13.15;99.41;97404.50;4985305;28;20078;-70
2022/03/13 09:55:30;;;;;;;16.27;12.13;;;12.60;85.30;;;13.11;98.02;97404.75;4985068;28;20495;-69
2022/03/13 09:57:57;;;;;;;18.75;12.35;;;12.40;85.70;;;12.74;99.22;97404.16;4986684;28;20085;-69
2022/03/13 10:00:25;;;;;;;18.67;12.57;;;12.10;86.10;;;12.60;100.00;97394.50;4981795;28;20051;-69
2022/03/13 10:02:54;;;;;;;17.95;12.45;;;12.00;86.90;;;11.78;100.00;97397.00;4986231;28;20046;-69
2022/03/13 10:05:24;;;;;;;16.50;11.70;;;11.90;87.60;;;11.85;100.00;97398.38;4985488;28;20070;-69
2022/03/13 10:07:57;;;;;;;19.98;12.23;;;11.70;88.70;;;11.55;100.00;97399.00;4983989;28;20450;-69
2022/03/13 10:10:27;;;;;;;18.35;12.25;;;11.60;88.40;;;11.13;100.00;97389.78;4984922;28;20129;-69
2022/03/13 10:12:54;;;;;;;19.23;12.85;;;11.60;88.30;;;11.56;100.00;97392.03;4985218;28;20146;-69
2022/03/13 10:15:22;;;;;;;18.05;11.95;;;11.50;89.40;;;10.87;100.00;97391.81;4988523;28;20463;-70